Time;durP1;ratioP1;P1;durP2;ratioP2;P2;SDS_P1;SDS_P2;PMS_P1;PMS_P2;Temp;Humidity;BMP_temperature;BMP_pressure;BME280_temperature;BME280_humidity;BME280_pressure;Samples;Min_cycle;Max_cycle;Signal;HPM_P1;HPM_P2
2022/08/02 00:00:58;;;;;;;1.90;1.70;;;;;;;19.35;73.94;98253.16;5033807;28;20052;-88
2022/08/02 00:03:26;;;;;;;1.80;1.70;;;;;;;19.19;73.97;98259.38;5029314;28;20042;-89
2022/08/02 00:05:53;;;;;;;2.38;1.83;;;;;;;19.14;74.42;98254.03;5028320;28;20120;-89
2022/08/02 00:08:21;;;;;;;2.08;1.88;;;;;;;19.13;74.96;98265.69;5028968;28;20143;-88
2022/08/02 00:10:48;;;;;;;2.10;1.50;;;;;;;19.14;75.24;98267.31;5028401;28;20072;-88
2022/08/02 00:13:15;;;;;;;1.50;1.40;;;;;;;19.17;74.17;98261.50;5033258;28;20084;-88
2022/08/02 00:15:43;;;;;;;2.38;1.67;;;;;;;19.05;74.59;98268.81;5025504;28;20120;-88
2022/08/02 00:18:10;;;;;;;1.85;1.75;;;;;;;19.12;74.88;98259.56;5022483;28;20037;-86
2022/08/02 00:20:38;;;;;;;1.90;1.80;;;;;;;19.15;74.09;98264.41;5024794;28;20045;-88
2022/08/02 00:23:05;;;;;;;2.45;2.25;;;;;;;18.85;75.11;98264.88;5027442;28;20037;-88
2022/08/02 00:25:32;;;;;;;2.10;1.90;;;;;;;18.61;76.61;98261.66;5036492;28;20099;-88
2022/08/02 00:27:59;;;;;;;2.00;1.90;;;;;;;18.61;76.32;98268.81;5029935;28;20044;-88
2022/08/02 00:30:26;;;;;;;2.58;2.30;;;;;;;18.45;76.79;98259.84;5031730;28;20102;-88
2022/08/02 00:32:52;;;;;;;1.80;1.70;;;;;;;18.33;76.89;98262.63;5030019;28;20045;-88
2022/08/02 00:35:20;;;;;;;2.20;2.00;;;;;;;18.33;76.66;98252.00;5027504;28;20420;-89
2022/08/02 00:37:47;;;;;;;2.05;1.85;;;;;;;18.26;76.62;98261.19;5026268;28;20068;-88
2022/08/02 00:40:13;;;;;;;1.77;1.67;;;;;;;18.47;77.02;98247.13;5030997;28;20053;-87
2022/08/02 00:42:40;;;;;;;1.65;1.55;;;;;;;18.71;75.87;98253.84;5031147;28;20037;-86
2022/08/02 00:45:09;;;;;;;1.60;1.50;;;;;;;18.83;75.33;98256.38;5029108;28;20040;-88
2022/08/02 00:47:36;;;;;;;1.60;1.50;;;;;;;18.88;75.16;98245.78;5043222;28;20050;-87
2022/08/02 00:50:04;;;;;;;2.25;1.50;;;;;;;19.01;74.92;98257.06;5025699;28;20126;-89
2022/08/02 00:52:31;;;;;;;2.00;1.90;;;;;;;18.84;74.71;98260.63;5026706;28;20041;-89
2022/08/02 00:54:58;;;;;;;2.45;2.00;;;;;;;18.74;74.94;98262.34;5030236;28;20590;-88
2022/08/02 00:57:25;;;;;;;1.85;1.42;;;;;;;18.87;75.18;98262.78;5032038;28;20049;-87
2022/08/02 00:59:52;;;;;;;1.75;1.65;;;;;;;18.98;74.67;98267.16;5023969;28;20037;-87
2022/08/02 01:02:19;;;;;;;1.30;1.20;;;;;;;19.04;74.98;98268.00;5027780;28;20405;-88
2022/08/02 01:04:46;;;;;;;2.25;1.60;;;;;;;19.08;74.90;98278.97;5023870;28;20038;-89
2022/08/02 01:07:14;;;;;;;1.60;1.50;;;;;;;19.04;74.35;98272.53;5026133;28;20124;-89
2022/08/02 01:09:44;;;;;;;2.40;2.20;;;;;;;18.74;75.57;98276.44;5022770;28;20121;-89
2022/08/02 01:12:12;;;;;;;2.63;2.43;;;;;;;18.63;75.80;98272.81;5024629;28;20046;-88
2022/08/02 01:14:49;;;;;;;2.85;2.25;;;;;;;18.38;76.39;98265.34;5025597;28;20033;-88
2022/08/02 01:17:31;;;;;;;2.22;1.90;;;;;;;18.44;76.70;98264.34;5028864;28;20057;-89
2022/08/02 01:20:42;;;;;;;2.30;2.10;;;;;;;18.38;76.76;98275.16;5026351;28;20061;-89
2022/08/02 01:24:10;;;;;;;2.15;1.95;;;;;;;18.31;77.58;98278.00;5024083;28;20508;-86
2022/08/02 01:26:57;;;;;;;2.97;2.42;;;;;;;18.10;77.92;98268.94;4989905;28;20481;-89
2022/08/02 01:29:36;;;;;;;2.40;2.20;;;;;;;18.04;77.99;98271.75;5011101;28;20073;-87
2022/08/02 01:32:17;;;;;;;2.33;2.13;;;;;;;18.14;77.74;98277.22;5011088;28;20041;-88
2022/08/02 01:35:06;;;;;;;2.38;2.15;;;;;;;18.07;77.40;98274.75;5027081;28;20111;-88
2022/08/02 01:37:53;;;;;;;2.50;2.30;;;;;;;18.10;77.36;98257.50;5025824;28;20069;-85
2022/08/02 01:40:33;;;;;;;2.13;1.92;;;;;;;18.12;77.30;98268.72;5033422;28;20100;-86
2022/08/02 01:43:02;;;;;;;2.13;1.80;;;;;;;18.11;77.28;98277.69;5021065;28;20399;-89
2022/08/02 01:45:34;;;;;;;1.90;1.80;;;;;;;18.12;77.22;98276.66;5005429;28;20045;-88
2022/08/02 01:48:04;;;;;;;1.95;1.85;;;;;;;18.15;77.46;98287.59;5023742;28;20040;-87
2022/08/02 01:50:36;;;;;;;1.98;1.88;;;;;;;17.96;77.38;98277.47;5029841;28;20503;-89
2022/08/02 01:53:11;;;;;;;2.70;2.50;;;;;;;17.87;78.32;98272.59;5031138;28;20049;-91
2022/08/02 01:55:50;;;;;;;2.97;2.67;;;;;;;17.77;79.10;98287.53;5022248;28;20045;-89
2022/08/02 01:58:35;;;;;;;3.08;2.80;;;;;;;17.65;79.48;98290.25;5034028;28;20046;-90
2022/08/02 02:01:06;;;;;;;3.22;2.92;;;;;;;17.50;80.08;98300.56;5034035;28;20045;-89
2022/08/02 02:03:38;;;;;;;3.05;2.75;;;;;;;17.46;80.75;98288.84;5009809;28;20692;-88
2022/08/02 02:06:11;;;;;;;3.35;3.05;;;;;;;17.31;80.91;98284.06;5008575;28;20049;-89
2022/08/02 02:08:42;;;;;;;3.17;2.80;;;;;;;17.31;81.07;98284.88;5028466;28;20052;-89
2022/08/02 02:11:09;;;;;;;;;;;;;;;17.44;81.06;98294.38;5024728;28;20448;-88
2022/08/02 02:14:03;;;;;;;2.30;2.10;;;;;;;17.49;80.73;98293.66;5016324;28;19925;-89
2022/08/02 02:16:32;;;;;;;2.90;1.90;;;;;;;17.68;80.30;98303.00;5016155;28;20488;-89
2022/08/02 02:19:02;;;;;;;2.05;1.85;;;;;;;17.69;80.06;98291.34;5027779;28;20044;-89
2022/08/02 02:21:30;;;;;;;2.70;2.30;;;;;;;17.64;79.95;98299.25;5017165;28;20044;-90
2022/08/02 02:24:01;;;;;;;3.80;2.92;;;;;;;17.33;80.59;98296.06;5014577;28;20046;-89
2022/08/02 02:26:35;;;;;;;4.40;3.47;;;;;;;17.11;81.29;98289.81;5013509;28;20072;-88
2022/08/02 02:29:05;;;;;;;3.63;3.33;;;;;;;16.98;82.20;98284.81;5009230;28;20084;-90
2022/08/02 02:31:38;;;;;;;3.33;2.60;;;;;;;16.87;82.14;98275.06;5034309;28;20451;-88
2022/08/02 02:34:13;;;;;;;3.55;2.70;;;;;;;16.97;81.81;98276.06;5015928;28;20043;-89
2022/08/02 02:36:47;;;;;;;3.20;2.90;;;;;;;17.01;81.93;98286.97;5047166;28;20136;-88
2022/08/02 02:39:19;;;;;;;3.08;2.78;;;;;;;17.02;82.13;98289.38;5047141;28;20052;-89
2022/08/02 02:41:50;;;;;;;2.30;2.10;;;;;;;17.03;82.08;98284.88;5030625;28;20048;-89
2022/08/02 02:44:20;;;;;;;2.90;2.50;;;;;;;17.13;81.38;98274.47;5016468;28;20045;-89
2022/08/02 02:46:53;;;;;;;2.72;2.47;;;;;;;17.08;81.58;98277.03;5013119;28;20413;-88
2022/08/02 02:49:24;;;;;;;2.60;2.40;;;;;;;17.07;81.68;98280.72;5018223;28;20135;-88
2022/08/02 02:51:54;;;;;;;2.38;2.13;;;;;;;17.02;81.39;98262.06;5030515;28;20073;-90
2022/08/02 02:54:24;;;;;;;2.40;2.20;;;;;;;17.12;81.36;98267.56;5025525;28;20042;-88
2022/08/02 02:57:01;;;;;;;2.20;2.00;;;;;;;17.12;81.42;98259.63;5033219;28;20045;-88
2022/08/02 02:59:29;;;;;;;1.98;1.70;;;;;;;17.27;81.12;98267.03;5027935;28;20045;-87
2022/08/02 03:01:58;;;;;;;1.60;1.50;;;;;;;17.48;80.48;98270.84;5029755;28;20518;-88
2022/08/02 03:04:28;;;;;;;1.98;1.67;;;;;;;17.47;79.93;98277.19;5024726;28;20060;-89
2022/08/02 03:07:15;;;;;;;2.72;1.90;;;;;;;17.57;79.64;98274.69;5019771;28;20046;-90
2022/08/02 03:09:43;;;;;;;3.20;1.80;;;;;;;17.67;79.29;98285.50;5025825;28;20047;-89
2022/08/02 03:12:16;;;;;;;2.03;1.83;;;;;;;17.45;79.75;98276.63;5023514;28;20515;-89
2022/08/02 03:14:46;;;;;;;2.17;1.98;;;;;;;17.36;80.39;98279.66;5022196;28;20045;-88
2022/08/02 03:17:15;;;;;;;2.00;1.80;;;;;;;17.29;80.72;98273.72;5042458;28;20040;-88
2022/08/02 03:19:44;;;;;;;1.50;1.40;;;;;;;17.46;81.00;98272.94;5029888;28;20064;-87
2022/08/02 03:22:11;;;;;;;1.95;1.75;;;;;;;17.52;80.17;98267.50;5024032;28;20095;-87
2022/08/02 03:24:39;;;;;;;1.70;1.60;;;;;;;17.65;79.39;98266.38;5028458;28;20036;-87
2022/08/02 03:27:06;;;;;;;1.70;1.60;;;;;;;17.82;78.94;98279.66;5019459;28;20122;-86
2022/08/02 03:29:33;;;;;;;1.83;1.58;;;;;;;17.73;78.44;98260.69;5029041;28;20038;-86
2022/08/02 03:32:02;;;;;;;1.70;1.60;;;;;;;17.89;77.94;98275.81;5029854;28;20444;-87
2022/08/02 03:34:30;;;;;;;2.25;1.63;;;;;;;17.91;77.79;98286.16;5022584;28;20655;-88
2022/08/02 03:36:59;;;;;;;2.53;2.33;;;;;;;17.63;78.65;98281.69;5022361;28;20050;-89
2022/08/02 03:39:27;;;;;;;3.90;2.45;;;;;;;17.34;79.17;98276.47;5025793;28;20050;-89
2022/08/02 03:41:55;;;;;;;2.28;2.03;;;;;;;17.20;79.76;98280.44;5029334;28;20076;-88
2022/08/02 03:44:24;;;;;;;1.80;1.70;;;;;;;17.46;79.77;98296.81;5011540;28;20041;-89
2022/08/02 03:46:53;;;;;;;2.17;1.98;;;;;;;17.56;79.36;98289.81;5013826;28;20528;-88
2022/08/02 03:49:23;;;;;;;1.85;1.65;;;;;;;17.65;78.97;98293.69;5029813;28;20051;-88
2022/08/02 03:51:52;;;;;;;1.92;1.73;;;;;;;17.75;78.27;98286.97;5046265;28;20064;-89
2022/08/02 03:54:20;;;;;;;1.80;1.55;;;;;;;17.76;78.27;98288.59;5023586;28;20168;-89
2022/08/02 03:56:47;;;;;;;1.50;1.40;;;;;;;17.78;78.12;98297.09;5040621;28;20041;-89
2022/08/02 03:59:16;;;;;;;1.63;1.52;;;;;;;17.78;77.13;98289.94;5022351;28;20091;-89
2022/08/02 04:01:45;;;;;;;2.80;2.03;;;;;;;17.57;77.99;98301.22;5031055;28;20057;-89
2022/08/02 04:04:15;;;;;;;1.92;1.50;;;;;;;17.52;77.98;98282.59;5029888;28;20304;-88
2022/08/02 04:06:42;;;;;;;2.35;1.55;;;;;;;17.66;78.40;98299.78;5017929;28;20133;-88
2022/08/02 04:09:10;;;;;;;1.95;1.75;;;;;;;17.76;77.89;98313.28;5027613;28;20037;-89
2022/08/02 04:11:38;;;;;;;2.53;1.70;;;;;;;17.79;77.55;98318.06;5031744;28;20418;-86
2022/08/02 04:14:08;;;;;;;2.10;1.90;;;;;;;17.79;77.25;98314.63;5035298;28;20065;-85
2022/08/02 04:16:46;;;;;;;1.95;1.77;;;;;;;17.70;77.48;98300.94;5028315;28;20038;-87
2022/08/02 04:19:26;;;;;;;2.65;1.65;;;;;;;17.71;77.38;98313.16;5025521;28;20041;-84
2022/08/02 04:21:56;;;;;;;2.40;2.08;;;;;;;17.64;76.89;98329.22;5028240;28;20045;-89
2022/08/02 04:24:31;;;;;;;2.38;2.17;;;;;;;17.48;77.41;98329.19;5028930;28;20582;-89
2022/08/02 04:27:02;;;;;;;2.60;2.30;;;;;;;17.18;79.31;98324.94;5025254;28;20441;-88
2022/08/02 04:29:50;;;;;;;2.60;1.90;;;;;;;17.32;79.31;98323.59;5029914;28;20111;-89
2022/08/02 04:32:19;;;;;;;1.95;1.73;;;;;;;17.54;79.04;98336.19;5015147;28;20049;-88
2022/08/02 04:34:47;;;;;;;2.63;1.70;;;;;;;17.55;78.86;98327.19;5028758;28;20059;-88
2022/08/02 04:37:37;;;;;;;1.73;1.50;;;;;;;17.77;78.36;98336.09;5030933;28;20485;-88
2022/08/02 04:40:24;;;;;;;2.03;1.38;;;;;;;17.80;77.70;98338.25;5032484;28;20083;-88
2022/08/02 04:42:51;;;;;;;1.95;1.75;;;;;;;17.79;78.13;98331.34;5034206;28;20040;-88
2022/08/02 04:45:20;;;;;;;2.13;1.92;;;;;;;17.92;77.21;98346.94;5030541;28;20128;-89
2022/08/02 04:47:47;;;;;;;2.33;2.00;;;;;;;17.98;77.31;98342.53;5027376;28;20599;-89
2022/08/02 04:50:29;;;;;;;2.22;1.90;;;;;;;18.07;77.20;98348.25;5034352;28;20041;-89
2022/08/02 04:52:56;;;;;;;2.33;2.13;;;;;;;18.15;77.26;98347.84;5029562;28;20079;-88
2022/08/02 04:55:27;;;;;;;2.08;1.80;;;;;;;18.23;77.49;98346.63;5029604;28;20033;-87
2022/08/02 04:57:58;;;;;;;2.40;1.90;;;;;;;18.38;77.48;98349.50;5034265;28;20176;-87
2022/08/02 05:00:45;;;;;;;2.20;2.00;;;;;;;18.35;76.99;98340.19;5020570;28;20041;-86
2022/08/02 05:03:13;;;;;;;3.55;2.58;;;;;;;18.41;76.48;98339.22;5038308;28;20055;-86
2022/08/02 05:05:40;;;;;;;2.55;2.35;;;;;;;18.44;76.40;98341.38;5035974;28;20176;-86
2022/08/02 05:08:08;;;;;;;3.25;2.40;;;;;;;18.38;75.98;98331.72;5028241;28;20619;-89
2022/08/02 05:10:35;;;;;;;2.50;1.98;;;;;;;18.35;76.49;98339.38;5017369;28;20073;-90
2022/08/02 05:13:04;;;;;;;2.03;1.83;;;;;;;18.37;76.78;98343.41;5029395;28;20092;-89
2022/08/02 05:15:31;;;;;;;2.13;1.92;;;;;;;18.53;76.78;98348.91;5029271;28;20068;-89
2022/08/02 05:17:59;;;;;;;2.78;2.00;;;;;;;18.43;75.97;98347.72;5025612;28;20093;-89
2022/08/02 05:20:26;;;;;;;1.85;1.75;;;;;;;18.65;75.79;98357.56;5025584;28;20537;-90
2022/08/02 05:22:53;;;;;;;2.65;2.42;;;;;;;18.54;75.68;98347.88;5024638;28;20365;-91
2022/08/02 05:25:21;;;;;;;3.08;2.55;;;;;;;18.42;75.92;98346.13;5027319;28;20041;-90
2022/08/02 05:27:48;;;;;;;2.65;2.45;;;;;;;18.44;75.86;98354.66;5028432;28;20586;-90
2022/08/02 05:30:16;;;;;;;2.78;2.30;;;;;;;18.53;76.84;98344.44;5025820;28;20409;-92
2022/08/02 05:32:49;;;;;;;2.20;2.00;;;;;;;18.65;76.91;98346.94;5023148;28;20060;-91
2022/08/02 05:35:20;;;;;;;3.05;2.50;;;;;;;18.76;76.21;98339.97;5012808;28;20073;-91
2022/08/02 05:37:49;;;;;;;3.67;2.85;;;;;;;18.92;74.66;98365.69;5040634;28;20037;-91
2022/08/02 05:40:18;;;;;;;3.90;2.75;;;;;;;18.88;75.11;98365.34;5038306;28;20124;-91
2022/08/02 05:42:53;;;;;;;3.85;3.30;;;;;;;18.81;73.94;98363.94;5032648;28;20088;-89
2022/08/02 05:45:20;;;;;;;3.47;2.95;;;;;;;18.91;75.70;98364.88;5045280;28;20143;-90
2022/08/02 05:47:47;;;;;;;3.70;2.90;;;;;;;18.94;74.36;98353.75;5044453;28;20053;-89
2022/08/02 05:50:14;;;;;;;3.33;2.90;;;;;;;18.98;74.34;98360.19;5049280;28;20064;-92
2022/08/02 05:52:47;;;;;;;3.22;2.92;;;;;;;19.15;74.12;98354.81;5048138;28;20500;-92
2022/08/02 05:55:25;;;;;;;2.42;2.22;;;;;;;19.24;74.55;98344.50;5022657;28;20412;-90
2022/08/02 05:58:19;;;;;;;2.40;2.10;;;;;;;19.51;75.22;98345.34;5026252;28;20120;-88
2022/08/02 06:00:52;;;;;;;2.92;2.10;;;;;;;19.67;73.82;98349.00;5051017;28;20072;-85
2022/08/02 06:03:24;;;;;;;3.05;2.53;;;;;;;19.69;72.17;98338.09;5031945;28;20045;-89
2022/08/02 06:06:13;;;;;;;3.15;2.25;;;;;;;19.81;73.48;98364.53;5027711;28;20037;-90
2022/08/02 06:08:45;;;;;;;2.17;1.98;;;;;;;19.94;72.61;98359.59;5027841;28;20048;-90
2022/08/02 06:11:20;;;;;;;2.00;1.80;;;;;;;20.04;73.69;98357.03;5029692;28;20049;-90
2022/08/02 06:13:58;;;;;;;2.15;1.95;;;;;;;20.09;72.15;98358.09;5040656;28;20081;-91
2022/08/02 06:16:31;;;;;;;3.97;3.25;;;;;;;19.95;70.21;98353.22;5051066;28;20069;-95
2022/08/02 06:19:10;;;;;;;3.72;3.00;;;;;;;20.08;70.22;98365.28;5021194;28;20080;-91
2022/08/02 06:21:42;;;;;;;3.58;2.75;;;;;;;20.16;71.30;98370.16;5028194;28;20470;-89
2022/08/02 06:24:32;;;;;;;3.10;2.80;;;;;;;20.17;70.13;98370.97;5057557;28;20029;-90
2022/08/02 06:27:01;;;;;;;;;;;;;;;20.12;70.66;98378.91;5009809;28;20062;-93
2022/08/02 06:29:32;;;;;;;3.97;2.63;;;;;;;20.34;72.58;98379.63;5035032;28;19927;-88
2022/08/02 06:32:06;;;;;;;2.20;1.90;;;;;;;20.56;72.38;98364.31;5029715;28;20038;-89
2022/08/02 06:34:38;;;;;;;2.10;1.90;;;;;;;20.81;71.67;98386.84;5035580;28;20052;-89
2022/08/02 06:37:25;;;;;;;2.88;2.58;;;;;;;20.87;71.16;98380.50;5012824;28;20076;-91
2022/08/02 06:40:16;;;;;;;2.30;2.10;;;;;;;21.15;70.41;98373.16;5011733;28;20131;-88
2022/08/02 06:42:59;;;;;;;2.50;2.30;;;;;;;21.28;68.83;98375.31;5023250;28;20058;-88
2022/08/02 06:45:26;;;;;;;2.20;2.00;;;;;;;21.43;68.79;98371.94;5027238;28;20357;-86
2022/08/02 06:47:53;;;;;;;2.70;2.25;;;;;;;21.51;68.35;98379.41;5031197;28;20041;-87
2022/08/02 06:50:20;;;;;;;2.28;2.08;;;;;;;21.44;67.32;98369.00;5027922;28;20092;-91
2022/08/02 06:52:47;;;;;;;2.53;2.13;;;;;;;21.66;66.80;98371.47;5030173;28;20053;-88
2022/08/02 06:55:15;;;;;;;2.47;2.28;;;;;;;21.90;63.23;98377.09;5027267;28;20081;-89
2022/08/02 06:57:42;;;;;;;2.58;2.13;;;;;;;22.12;67.44;98382.19;5029327;28;20132;-88
2022/08/02 07:00:11;;;;;;;2.03;1.92;;;;;;;22.20;65.66;98380.88;5031365;28;20137;-87
2022/08/02 07:02:41;;;;;;;3.00;2.70;;;;;;;21.90;64.09;98367.22;5033762;28;20048;-88
2022/08/02 07:05:08;;;;;;;2.83;2.63;;;;;;;21.72;63.45;98361.59;5027271;28;20356;-90
2022/08/02 07:07:35;;;;;;;2.35;2.15;;;;;;;21.73;66.87;98372.00;5031880;28;20048;-88
2022/08/02 07:10:04;;;;;;;2.40;2.20;;;;;;;21.58;67.81;98364.75;5021471;28;20073;-88
2022/08/02 07:12:33;;;;;;;2.80;2.60;;;;;;;21.44;68.11;98369.00;5025085;28;20383;-90
2022/08/02 07:15:05;;;;;;;2.60;2.10;;;;;;;21.47;68.80;98373.81;5023911;28;20439;-87
2022/08/02 07:17:33;;;;;;;2.47;2.28;;;;;;;21.52;67.00;98373.81;5032058;28;20043;-88
2022/08/02 07:20:00;;;;;;;2.38;2.20;;;;;;;21.67;64.74;98362.38;5030465;28;20499;-86
2022/08/02 07:22:28;;;;;;;3.42;3.10;;;;;;;21.76;63.48;98374.13;5029365;28;20103;-87
2022/08/02 07:24:58;;;;;;;2.78;2.58;;;;;;;21.80;66.22;98367.19;5010557;28;20041;-88
2022/08/02 07:27:26;;;;;;;3.72;2.42;;;;;;;22.20;67.02;98370.19;5021762;28;20052;-86
2022/08/02 07:29:54;;;;;;;2.63;2.30;;;;;;;22.40;62.76;98364.81;5030948;28;20050;-86
2022/08/02 07:32:26;;;;;;;3.28;2.95;;;;;;;22.42;63.06;98358.13;5023072;28;20377;-86
2022/08/02 07:34:54;;;;;;;3.53;3.22;;;;;;;22.41;63.18;98364.53;5028578;28;20069;-87
2022/08/02 07:37:25;;;;;;;2.97;2.67;;;;;;;22.46;63.10;98361.06;5025988;28;20555;-86
2022/08/02 07:40:13;;;;;;;3.30;3.00;;;;;;;22.67;64.83;98354.59;5026075;28;20063;-88
2022/08/02 07:42:53;;;;;;;2.75;2.55;;;;;;;22.98;61.92;98353.75;5025947;28;20036;-86
2022/08/02 07:45:29;;;;;;;3.03;2.72;;;;;;;23.03;61.43;98354.53;5027622;28;20120;-90
2022/08/02 07:47:59;;;;;;;3.55;3.25;;;;;;;22.92;60.42;98355.63;5015180;28;20127;-88
2022/08/02 07:50:27;;;;;;;;;;;;;;;22.97;60.39;98358.28;5044061;28;20049;-87
2022/08/02 07:52:54;;;;;;;4.22;3.80;;;;;;;22.73;62.22;98341.19;5025773;28;19928;-88
2022/08/02 07:55:24;;;;;;;3.45;3.15;;;;;;;23.00;61.23;98347.03;5026767;28;20566;-86
2022/08/02 07:58:11;;;;;;;2.88;2.67;;;;;;;23.17;65.19;98346.69;5020591;28;20056;-87
2022/08/02 08:00:42;;;;;;;3.35;3.15;;;;;;;23.28;60.16;98374.19;5026888;28;20517;-86
2022/08/02 08:03:10;;;;;;;3.20;2.90;;;;;;;23.37;62.76;98376.00;5040463;28;20056;-86
2022/08/02 08:05:38;;;;;;;3.00;2.60;;;;;;;23.69;59.59;98359.53;5023909;28;20041;-86
2022/08/02 08:08:05;;;;;;;2.97;2.70;;;;;;;23.84;59.68;98368.53;5026817;28;20073;-87
2022/08/02 08:10:33;;;;;;;3.30;3.00;;;;;;;23.62;59.44;98361.69;5017964;28;20033;-86
2022/08/02 08:13:00;;;;;;;2.70;2.50;;;;;;;23.92;62.19;98367.91;5024361;28;20042;-86
2022/08/02 08:15:27;;;;;;;3.17;2.88;;;;;;;23.89;57.53;98363.13;5021613;28;20045;-86
2022/08/02 08:17:54;;;;;;;3.67;3.15;;;;;;;23.90;56.79;98362.06;5025812;28;20042;-87
2022/08/02 08:20:21;;;;;;;2.63;2.42;;;;;;;24.23;62.85;98369.28;5020442;28;20046;-85
2022/08/02 08:22:52;;;;;;;2.55;2.35;;;;;;;24.44;57.87;98374.47;5029396;28;20046;-87
2022/08/02 08:25:19;;;;;;;3.83;3.00;;;;;;;24.48;56.77;98372.84;5051507;28;20081;-87
2022/08/02 08:27:52;;;;;;;2.47;2.22;;;;;;;24.59;56.57;98368.97;5039706;28;20088;-89
2022/08/02 08:30:21;;;;;;;3.05;2.60;;;;;;;24.80;57.91;98367.66;5033855;28;20137;-86
2022/08/02 08:32:48;;;;;;;2.70;2.50;;;;;;;24.58;57.71;98369.25;5027918;28;20046;-86
2022/08/02 08:35:15;;;;;;;2.60;2.40;;;;;;;24.38;56.31;98371.03;5036489;28;20055;-85
2022/08/02 08:37:43;;;;;;;2.50;2.30;;;;;;;24.24;58.02;98378.13;5032948;28;20055;-86
2022/08/02 08:40:11;;;;;;;2.30;2.10;;;;;;;24.39;59.44;98367.28;5029182;28;20500;-85
2022/08/02 08:42:45;;;;;;;2.63;2.42;;;;;;;24.40;58.27;98362.72;5027781;28;20683;-88
2022/08/02 08:45:13;;;;;;;2.40;2.20;;;;;;;24.55;59.02;98352.66;5033081;28;20044;-84
2022/08/02 08:47:41;;;;;;;2.83;2.63;;;;;;;24.75;56.72;98359.66;5028529;28;20128;-84
2022/08/02 08:50:20;;;;;;;2.80;2.60;;;;;;;24.93;57.45;98360.81;5031515;28;20037;-85
2022/08/02 08:53:06;;;;;;;4.00;2.83;;;;;;;25.03;56.30;98355.31;5024023;28;20047;-90
2022/08/02 08:55:36;;;;;;;2.67;2.47;;;;;;;24.92;57.38;98358.41;5024814;28;20030;-87
2022/08/02 08:58:05;;;;;;;2.90;2.60;;;;;;;25.08;54.56;98357.19;5022233;28;20282;-86
2022/08/02 09:00:35;;;;;;;3.13;2.90;;;;;;;25.12;53.91;98368.13;5021370;28;20053;-85
2022/08/02 09:03:05;;;;;;;3.53;3.22;;;;;;;24.93;54.31;98360.00;5024020;28;20046;-86
2022/08/02 09:05:38;;;;;;;3.35;3.05;;;;;;;25.06;54.03;98370.88;5024285;28;20379;-85
2022/08/02 09:08:06;;;;;;;3.13;2.83;;;;;;;25.24;57.46;98371.19;5038775;28;20056;-87
2022/08/02 09:10:44;;;;;;;2.80;2.60;;;;;;;25.24;53.44;98366.63;5015523;28;20045;-85
2022/08/02 09:13:20;;;;;;;2.63;2.42;;;;;;;25.58;54.44;98376.38;5022515;28;20056;-84
2022/08/02 09:16:07;;;;;;;2.83;2.63;;;;;;;25.80;53.32;98371.25;5022584;28;20047;-86
2022/08/02 09:18:44;;;;;;;2.70;2.50;;;;;;;25.93;54.40;98374.28;5020729;28;20080;-88
2022/08/02 09:21:15;;;;;;;2.40;2.20;;;;;;;26.19;53.08;98374.66;5021140;28;20505;-85
2022/08/02 09:23:46;;;;;;;2.60;2.40;;;;;;;26.26;52.18;98373.16;5012792;28;20064;-85
2022/08/02 09:26:22;;;;;;;;;;;;;;;26.37;52.87;98363.84;5026078;28;20095;-85
2022/08/02 09:28:52;;;;;;;3.97;2.90;;;;;;;26.27;52.69;98361.34;5009209;28;19929;-86
2022/08/02 09:31:23;;;;;;;3.13;2.92;;;;;;;26.35;49.79;98365.25;5017251;28;20045;-86
2022/08/02 09:33:56;;;;;;;2.88;2.60;;;;;;;26.29;50.30;98364.53;5025687;28;20090;-87
2022/08/02 09:36:26;;;;;;;2.58;2.38;;;;;;;26.46;52.44;98360.50;5017881;28;20060;-87
2022/08/02 09:39:03;;;;;;;2.78;2.58;;;;;;;26.56;50.57;98354.94;5012457;28;20046;-87
2022/08/02 09:41:34;;;;;;;3.10;2.90;;;;;;;26.77;51.77;98358.84;5025189;28;20066;-85
2022/08/02 09:44:05;;;;;;;2.85;2.13;;;;;;;26.95;52.12;98359.84;5031119;28;20042;-86
2022/08/02 09:46:42;;;;;;;2.78;2.55;;;;;;;26.95;50.48;98339.09;5028957;28;20088;-87
2022/08/02 09:49:11;;;;;;;2.78;2.58;;;;;;;27.06;47.69;98349.69;5031526;28;20115;-86
2022/08/02 09:51:46;;;;;;;3.40;3.00;;;;;;;26.93;48.92;98325.16;5009556;28;20455;-85
2022/08/02 09:54:25;;;;;;;2.53;2.33;;;;;;;27.20;53.07;98340.47;5018184;28;20046;-85
2022/08/02 09:56:59;;;;;;;2.92;2.70;;;;;;;27.17;47.51;98345.69;5026952;28;20538;-87
2022/08/02 09:59:28;;;;;;;2.60;2.40;;;;;;;27.16;49.00;98349.47;5030263;28;20041;-85
2022/08/02 10:01:59;;;;;;;3.03;2.75;;;;;;;27.10;46.95;98345.28;5026951;28;20049;-88
2022/08/02 10:04:31;;;;;;;2.83;2.63;;;;;;;27.08;47.08;98332.13;5032942;28;20136;-87
2022/08/02 10:07:21;;;;;;;2.50;2.30;;;;;;;27.28;46.17;98325.50;5024678;28;20054;-83
2022/08/02 10:09:50;;;;;;;2.42;2.22;;;;;;;27.56;47.68;98326.22;5026942;28;20674;-84
2022/08/02 10:12:31;;;;;;;2.28;2.10;;;;;;;27.64;45.92;98322.78;5020593;28;20460;-83
2022/08/02 10:14:59;;;;;;;1.88;1.77;;;;;;;27.90;47.42;98325.72;5014411;28;20037;-85
2022/08/02 10:17:26;;;;;;;1.90;1.80;;;;;;;28.09;42.85;98335.50;5026956;28;20037;-83
2022/08/02 10:19:53;;;;;;;2.67;2.47;;;;;;;28.00;41.06;98336.22;5031293;28;20713;-86
2022/08/02 10:22:32;;;;;;;2.20;2.00;;;;;;;28.11;46.75;98341.38;5013649;28;20077;-84
2022/08/02 10:25:03;;;;;;;2.33;2.15;;;;;;;28.24;43.24;98335.88;5000886;28;20072;-82
2022/08/02 10:27:31;;;;;;;2.75;2.47;;;;;;;28.23;43.50;98344.28;5036044;28;20037;-83
2022/08/02 10:30:20;;;;;;;2.67;2.47;;;;;;;28.43;46.30;98335.72;5018679;28;20088;-85
2022/08/02 10:32:48;;;;;;;2.58;2.30;;;;;;;28.43;41.83;98337.59;5012556;28;20037;-84
2022/08/02 10:35:20;;;;;;;2.50;2.30;;;;;;;28.64;45.78;98335.16;5020836;28;20100;-85
2022/08/02 10:38:07;;;;;;;2.75;2.55;;;;;;;28.39;41.20;98328.56;5014133;28;20062;-87
2022/08/02 10:40:50;;;;;;;3.35;3.15;;;;;;;28.08;42.60;98333.91;5028238;28;20141;-83
2022/08/02 10:43:35;;;;;;;2.72;2.50;;;;;;;28.09;43.57;98325.50;5013403;28;20400;-84
2022/08/02 10:46:29;;;;;;;2.92;2.72;;;;;;;28.00;42.03;98313.88;5030060;28;20049;-87
2022/08/02 10:49:11;;;;;;;2.30;2.10;;;;;;;28.14;45.54;98319.19;5025886;28;20068;-82
2022/08/02 10:52:05;;;;;;;2.60;2.40;;;;;;;28.38;42.19;98308.88;5019497;28;20068;-83
2022/08/02 10:54:37;;;;;;;2.10;2.00;;;;;;;28.64;44.14;98300.88;5032482;28;20120;-84
2022/08/02 10:57:23;;;;;;;2.13;2.03;;;;;;;28.59;42.94;98308.31;5015724;28;20064;-86
2022/08/02 11:00:09;;;;;;;2.47;2.28;;;;;;;28.66;43.23;98304.03;5029653;28;21003;-86
2022/08/02 11:02:42;;;;;;;2.10;2.00;;;;;;;28.74;40.34;98307.91;5028493;28;20065;-83
2022/08/02 11:05:32;;;;;;;2.78;2.58;;;;;;;28.47;39.63;98296.22;5024008;28;20076;-84
2022/08/02 11:08:20;;;;;;;2.30;2.20;;;;;;;28.61;39.46;98306.91;5022291;28;20108;-87
2022/08/02 11:10:47;;;;;;;2.00;1.90;;;;;;;28.47;39.64;98301.59;4994742;28;20551;-85
2022/08/02 11:13:18;;;;;;;2.25;2.10;;;;;;;28.50;40.02;98284.81;5023007;28;20416;-83
2022/08/02 11:15:51;;;;;;;2.50;2.30;;;;;;;28.39;39.39;98282.69;5001545;28;20030;-84
2022/08/02 11:18:20;;;;;;;2.60;2.40;;;;;;;28.57;39.31;98297.03;5022662;28;20519;-81
2022/08/02 11:21:20;;;;;;;2.00;1.90;;;;;;;28.69;41.60;98302.63;5029553;28;20042;-84
2022/08/02 11:23:47;;;;;;;1.90;1.80;;;;;;;28.95;41.99;98287.31;5007190;28;20068;-84
2022/08/02 11:26:29;;;;;;;2.17;1.98;;;;;;;29.14;41.00;98292.41;5028201;28;20046;-84
2022/08/02 11:28:58;;;;;;;2.55;2.35;;;;;;;29.18;39.83;98293.38;5022931;28;20061;-84
2022/08/02 11:31:28;;;;;;;2.72;2.53;;;;;;;29.16;40.27;98284.03;4999143;28;20453;-84
2022/08/02 11:33:55;;;;;;;2.40;2.20;;;;;;;29.26;39.94;98273.69;4990909;28;20084;-85
2022/08/02 11:36:22;;;;;;;1.80;1.70;;;;;;;29.49;41.41;98277.03;5021771;28;20049;-84
2022/08/02 11:38:48;;;;;;;2.08;1.98;;;;;;;29.46;40.09;98269.56;5009509;28;20042;-84
2022/08/02 11:41:22;;;;;;;2.35;2.15;;;;;;;29.59;39.54;98274.03;4999903;28;20046;-85
2022/08/02 11:44:09;;;;;;;2.22;2.13;;;;;;;29.62;37.60;98269.88;5010001;28;20080;-84
2022/08/02 11:46:36;;;;;;;2.30;2.10;;;;;;;29.70;38.60;98260.19;5012888;28;20045;-84
2022/08/02 11:49:17;;;;;;;2.20;2.10;;;;;;;29.78;41.61;98265.56;5022423;28;20099;-85
2022/08/02 11:52:05;;;;;;;1.90;1.73;;;;;;;29.99;36.50;98262.97;5030137;28;20054;-84
2022/08/02 11:54:38;;;;;;;2.33;2.00;;;;;;;30.14;36.70;98255.47;5015693;28;20536;-84
2022/08/02 11:57:21;;;;;;;1.83;1.73;;;;;;;30.22;40.68;98251.94;5007903;28;20046;-84
2022/08/02 11:59:54;;;;;;;1.90;1.80;;;;;;;30.29;38.74;98254.94;5022349;28;20443;-86